sensor_id;sensor_type;location;lat;lon;timestamp;temperature;humidity
51327;DHT22;37412;52.836;6.362;2023-07-24T00:02:29;17.20;99.90
51327;DHT22;37412;52.836;6.362;2023-07-24T00:05:15;17.00;99.90
51327;DHT22;37412;52.836;6.362;2023-07-24T00:08:01;17.00;99.90
51327;DHT22;37412;52.836;6.362;2023-07-24T00:10:47;16.90;99.90
51327;DHT22;37412;52.836;6.362;2023-07-24T00:13:33;17.00;99.90
51327;DHT22;37412;52.836;6.362;2023-07-24T00:16:19;16.80;99.90
51327;DHT22;37412;52.836;6.362;2023-07-24T00:19:04;16.90;99.90
51327;DHT22;37412;52.836;6.362;2023-07-24T00:21:50;16.80;99.90
51327;DHT22;37412;52.836;6.362;2023-07-24T00:24:36;16.80;99.90
51327;DHT22;37412;52.836;6.362;2023-07-24T00:27:22;16.80;99.90
51327;DHT22;37412;52.836;6.362;2023-07-24T00:30:08;16.80;99.90
51327;DHT22;37412;52.836;6.362;2023-07-24T00:32:54;16.80;99.90
51327;DHT22;37412;52.836;6.362;2023-07-24T00:35:40;16.70;99.90
51327;DHT22;37412;52.836;6.362;2023-07-24T00:38:25;16.80;99.90
51327;DHT22;37412;52.836;6.362;2023-07-24T00:41:11;16.70;99.90
51327;DHT22;37412;52.836;6.362;2023-07-24T00:43:57;16.80;99.90
51327;DHT22;37412;52.836;6.362;2023-07-24T00:46:43;16.80;99.90
51327;DHT22;37412;52.836;6.362;2023-07-24T00:49:29;16.80;99.90
51327;DHT22;37412;52.836;6.362;2023-07-24T00:52:14;16.80;99.90
51327;DHT22;37412;52.836;6.362;2023-07-24T00:55:01;16.80;99.90
51327;DHT22;37412;52.836;6.362;2023-07-24T00:57:46;16.80;99.90
51327;DHT22;37412;52.836;6.362;2023-07-24T01:00:32;16.80;99.90
51327;DHT22;37412;52.836;6.362;2023-07-24T01:03:18;16.80;99.90
51327;DHT22;37412;52.836;6.362;2023-07-24T01:06:04;16.90;99.90
51327;DHT22;37412;52.836;6.362;2023-07-24T01:08:50;16.80;99.90
51327;DHT22;37412;52.836;6.362;2023-07-24T01:11:37;16.80;99.90
51327;DHT22;37412;52.836;6.362;2023-07-24T01:14:29;16.90;99.90
51327;DHT22;37412;52.836;6.362;2023-07-24T01:17:20;16.90;99.90
51327;DHT22;37412;52.836;6.362;2023-07-24T01:20:07;16.90;99.90
51327;DHT22;37412;52.836;6.362;2023-07-24T01:26:04;16.90;99.90
51327;DHT22;37412;52.836;6.362;2023-07-24T01:28:50;16.90;99.90
51327;DHT22;37412;52.836;6.362;2023-07-24T01:31:36;16.90;99.90
51327;DHT22;37412;52.836;6.362;2023-07-24T01:34:22;16.90;99.90
51327;DHT22;37412;52.836;6.362;2023-07-24T01:37:08;16.90;99.90
51327;DHT22;37412;52.836;6.362;2023-07-24T01:39:55;17.00;99.90
51327;DHT22;37412;52.836;6.362;2023-07-24T01:42:41;17.00;99.90
51327;DHT22;37412;52.836;6.362;2023-07-24T01:45:27;17.00;99.90
51327;DHT22;37412;52.836;6.362;2023-07-24T01:48:13;17.00;99.90
51327;DHT22;37412;52.836;6.362;2023-07-24T01:50:59;17.00;99.90
51327;DHT22;37412;52.836;6.362;2023-07-24T01:53:44;17.00;99.90
51327;DHT22;37412;52.836;6.362;2023-07-24T01:56:30;16.90;99.90
51327;DHT22;37412;52.836;6.362;2023-07-24T01:59:16;16.90;99.90
51327;DHT22;37412;52.836;6.362;2023-07-24T02:02:02;17.00;99.90
51327;DHT22;37412;52.836;6.362;2023-07-24T02:04:48;16.90;99.90
51327;DHT22;37412;52.836;6.362;2023-07-24T02:07:34;16.90;99.90
51327;DHT22;37412;52.836;6.362;2023-07-24T02:10:20;16.90;99.90
51327;DHT22;37412;52.836;6.362;2023-07-24T02:13:05;16.90;99.90
51327;DHT22;37412;52.836;6.362;2023-07-24T02:15:53;16.80;99.90
51327;DHT22;37412;52.836;6.362;2023-07-24T02:18:41;16.90;99.90
51327;DHT22;37412;52.836;6.362;2023-07-24T02:21:27;16.80;99.90
51327;DHT22;37412;52.836;6.362;2023-07-24T02:24:13;16.80;99.90
51327;DHT22;37412;52.836;6.362;2023-07-24T02:26:59;16.80;99.90
51327;DHT22;37412;52.836;6.362;2023-07-24T02:29:45;16.80;99.90
51327;DHT22;37412;52.836;6.362;2023-07-24T02:32:31;16.80;99.90
51327;DHT22;37412;52.836;6.362;2023-07-24T02:35:17;16.90;99.90
51327;DHT22;37412;52.836;6.362;2023-07-24T02:38:03;16.80;99.90
51327;DHT22;37412;52.836;6.362;2023-07-24T02:40:49;16.80;99.90
51327;DHT22;37412;52.836;6.362;2023-07-24T02:43:35;16.80;99.90
51327;DHT22;37412;52.836;6.362;2023-07-24T02:46:21;16.90;99.90
51327;DHT22;37412;52.836;6.362;2023-07-24T02:49:09;16.70;99.90
51327;DHT22;37412;52.836;6.362;2023-07-24T02:51:55;16.70;99.90
51327;DHT22;37412;52.836;6.362;2023-07-24T02:54:41;16.70;99.90
51327;DHT22;37412;52.836;6.362;2023-07-24T02:57:27;16.70;99.90
51327;DHT22;37412;52.836;6.362;2023-07-24T03:00:12;16.70;99.90
51327;DHT22;37412;52.836;6.362;2023-07-24T03:02:58;16.60;99.90
51327;DHT22;37412;52.836;6.362;2023-07-24T03:05:44;16.70;99.90
51327;DHT22;37412;52.836;6.362;2023-07-24T03:08:30;16.70;99.90
51327;DHT22;37412;52.836;6.362;2023-07-24T03:11:16;16.60;99.90
51327;DHT22;37412;52.836;6.362;2023-07-24T03:14:02;16.60;99.90
51327;DHT22;37412;52.836;6.362;2023-07-24T03:16:47;16.60;99.90
51327;DHT22;37412;52.836;6.362;2023-07-24T03:19:33;16.60;99.90
51327;DHT22;37412;52.836;6.362;2023-07-24T03:22:19;16.60;99.90
51327;DHT22;37412;52.836;6.362;2023-07-24T03:25:05;16.60;99.90
51327;DHT22;37412;52.836;6.362;2023-07-24T03:27:51;16.60;99.90
51327;DHT22;37412;52.836;6.362;2023-07-24T03:30:37;16.60;99.90
51327;DHT22;37412;52.836;6.362;2023-07-24T03:33:23;16.60;99.90
51327;DHT22;37412;52.836;6.362;2023-07-24T03:36:08;16.60;99.90
51327;DHT22;37412;52.836;6.362;2023-07-24T03:38:54;16.60;99.90
51327;DHT22;37412;52.836;6.362;2023-07-24T03:41:41;16.60;99.90
51327;DHT22;37412;52.836;6.362;2023-07-24T03:44:27;16.60;99.90
51327;DHT22;37412;52.836;6.362;2023-07-24T03:47:13;16.60;99.90
51327;DHT22;37412;52.836;6.362;2023-07-24T03:49:59;16.60;99.90
51327;DHT22;37412;52.836;6.362;2023-07-24T03:52:44;16.60;99.90
51327;DHT22;37412;52.836;6.362;2023-07-24T03:55:30;16.60;99.90
51327;DHT22;37412;52.836;6.362;2023-07-24T03:58:16;16.60;99.90
51327;DHT22;37412;52.836;6.362;2023-07-24T04:01:02;16.70;99.90
51327;DHT22;37412;52.836;6.362;2023-07-24T04:03:48;16.70;99.90
51327;DHT22;37412;52.836;6.362;2023-07-24T04:06:33;16.70;99.90
51327;DHT22;37412;52.836;6.362;2023-07-24T04:09:19;16.70;99.90
51327;DHT22;37412;52.836;6.362;2023-07-24T04:12:05;16.70;99.90
51327;DHT22;37412;52.836;6.362;2023-07-24T04:14:51;16.70;99.90
51327;DHT22;37412;52.836;6.362;2023-07-24T04:17:37;16.70;99.90
51327;DHT22;37412;52.836;6.362;2023-07-24T04:20:24;16.70;99.90
51327;DHT22;37412;52.836;6.362;2023-07-24T04:23:10;17.00;99.90
51327;DHT22;37412;52.836;6.362;2023-07-24T04:25:56;16.60;99.90
51327;DHT22;37412;52.836;6.362;2023-07-24T04:28:41;16.70;99.90
51327;DHT22;37412;52.836;6.362;2023-07-24T04:31:27;16.80;99.90
51327;DHT22;37412;52.836;6.362;2023-07-24T04:34:13;16.70;99.90
51327;DHT22;37412;52.836;6.362;2023-07-24T04:36:59;16.70;99.90
51327;DHT22;37412;52.836;6.362;2023-07-24T04:39:45;16.70;99.90
51327;DHT22;37412;52.836;6.362;2023-07-24T04:42:31;16.70;99.90
51327;DHT22;37412;52.836;6.362;2023-07-24T04:45:16;16.70;99.90
51327;DHT22;37412;52.836;6.362;2023-07-24T04:48:03;16.80;99.90
51327;DHT22;37412;52.836;6.362;2023-07-24T04:50:55;16.70;99.90
51327;DHT22;37412;52.836;6.362;2023-07-24T04:53:41;16.70;99.90
51327;DHT22;37412;52.836;6.362;2023-07-24T04:56:27;16.70;99.90
51327;DHT22;37412;52.836;6.362;2023-07-24T04:59:13;16.70;99.90
51327;DHT22;37412;52.836;6.362;2023-07-24T05:01:58;16.70;99.90
51327;DHT22;37412;52.836;6.362;2023-07-24T05:04:44;16.70;99.90
51327;DHT22;37412;52.836;6.362;2023-07-24T05:07:30;16.80;99.90
51327;DHT22;37412;52.836;6.362;2023-07-24T05:10:16;16.70;99.90
51327;DHT22;37412;52.836;6.362;2023-07-24T05:13:02;16.70;99.90
51327;DHT22;37412;52.836;6.362;2023-07-24T05:15:48;16.80;99.90
51327;DHT22;37412;52.836;6.362;2023-07-24T05:18:34;16.80;99.90
51327;DHT22;37412;52.836;6.362;2023-07-24T05:21:19;16.70;99.90
51327;DHT22;37412;52.836;6.362;2023-07-24T05:24:05;16.80;99.90
51327;DHT22;37412;52.836;6.362;2023-07-24T05:26:51;16.80;99.90
51327;DHT22;37412;52.836;6.362;2023-07-24T05:29:37;16.90;99.90
51327;DHT22;37412;52.836;6.362;2023-07-24T05:32:23;16.90;99.90
51327;DHT22;37412;52.836;6.362;2023-07-24T05:35:08;16.90;99.90
51327;DHT22;37412;52.836;6.362;2023-07-24T05:37:54;16.90;99.90
51327;DHT22;37412;52.836;6.362;2023-07-24T05:40:40;17.00;99.90
51327;DHT22;37412;52.836;6.362;2023-07-24T05:43:26;17.00;99.90
51327;DHT22;37412;52.836;6.362;2023-07-24T05:46:12;17.00;99.90
51327;DHT22;37412;52.836;6.362;2023-07-24T05:48:58;17.10;99.90
51327;DHT22;37412;52.836;6.362;2023-07-24T05:51:46;17.10;99.90
51327;DHT22;37412;52.836;6.362;2023-07-24T05:54:32;17.00;99.90
51327;DHT22;37412;52.836;6.362;2023-07-24T05:57:17;17.10;99.90
51327;DHT22;37412;52.836;6.362;2023-07-24T06:00:04;17.10;99.90
51327;DHT22;37412;52.836;6.362;2023-07-24T06:02:50;17.10;99.90
51327;DHT22;37412;52.836;6.362;2023-07-24T06:05:36;17.10;99.90
51327;DHT22;37412;52.836;6.362;2023-07-24T06:08:22;17.10;99.90
51327;DHT22;37412;52.836;6.362;2023-07-24T06:11:08;17.10;99.90
51327;DHT22;37412;52.836;6.362;2023-07-24T06:13:54;17.20;99.90
51327;DHT22;37412;52.836;6.362;2023-07-24T06:16:40;17.20;99.90
51327;DHT22;37412;52.836;6.362;2023-07-24T06:19:26;17.30;99.90
51327;DHT22;37412;52.836;6.362;2023-07-24T06:22:11;17.40;99.90
51327;DHT22;37412;52.836;6.362;2023-07-24T06:24:57;17.50;99.90
51327;DHT22;37412;52.836;6.362;2023-07-24T06:27:43;17.60;99.90
51327;DHT22;37412;52.836;6.362;2023-07-24T06:30:29;17.60;99.90
51327;DHT22;37412;52.836;6.362;2023-07-24T06:33:15;17.70;99.90
51327;DHT22;37412;52.836;6.362;2023-07-24T06:36:01;17.90;99.90
51327;DHT22;37412;52.836;6.362;2023-07-24T06:38:46;17.80;99.90
51327;DHT22;37412;52.836;6.362;2023-07-24T06:41:33;17.80;99.90
51327;DHT22;37412;52.836;6.362;2023-07-24T06:44:19;17.90;99.90
51327;DHT22;37412;52.836;6.362;2023-07-24T06:47:05;17.80;99.90
51327;DHT22;37412;52.836;6.362;2023-07-24T06:49:50;17.80;99.90
51327;DHT22;37412;52.836;6.362;2023-07-24T06:52:36;17.90;99.90
51327;DHT22;37412;52.836;6.362;2023-07-24T06:55:24;17.90;99.90
51327;DHT22;37412;52.836;6.362;2023-07-24T06:58:10;18.00;99.90
51327;DHT22;37412;52.836;6.362;2023-07-24T07:00:55;18.10;99.90
51327;DHT22;37412;52.836;6.362;2023-07-24T07:03:41;18.20;99.90
51327;DHT22;37412;52.836;6.362;2023-07-24T07:06:27;18.20;99.90
51327;DHT22;37412;52.836;6.362;2023-07-24T07:09:13;18.30;99.90
51327;DHT22;37412;52.836;6.362;2023-07-24T07:11:59;18.30;99.90
51327;DHT22;37412;52.836;6.362;2023-07-24T07:14:45;18.30;99.90
51327;DHT22;37412;52.836;6.362;2023-07-24T07:17:30;18.40;99.90
51327;DHT22;37412;52.836;6.362;2023-07-24T07:20:16;18.40;99.90
51327;DHT22;37412;52.836;6.362;2023-07-24T07:23:02;18.50;99.90
51327;DHT22;37412;52.836;6.362;2023-07-24T07:25:48;18.50;99.90
51327;DHT22;37412;52.836;6.362;2023-07-24T07:28:35;18.50;99.90
51327;DHT22;37412;52.836;6.362;2023-07-24T07:31:21;18.60;99.90
51327;DHT22;37412;52.836;6.362;2023-07-24T07:34:07;18.60;99.90
51327;DHT22;37412;52.836;6.362;2023-07-24T07:36:52;18.70;99.90
51327;DHT22;37412;52.836;6.362;2023-07-24T07:39:38;18.70;99.90
51327;DHT22;37412;52.836;6.362;2023-07-24T07:42:24;18.80;99.90
51327;DHT22;37412;52.836;6.362;2023-07-24T07:45:10;18.90;99.90
51327;DHT22;37412;52.836;6.362;2023-07-24T07:47:56;18.70;99.90
51327;DHT22;37412;52.836;6.362;2023-07-24T07:50:42;18.80;99.90
51327;DHT22;37412;52.836;6.362;2023-07-24T07:53:27;18.70;99.90
51327;DHT22;37412;52.836;6.362;2023-07-24T07:56:13;18.70;99.90
51327;DHT22;37412;52.836;6.362;2023-07-24T07:58:59;18.80;99.90
51327;DHT22;37412;52.836;6.362;2023-07-24T08:01:45;18.80;99.90
51327;DHT22;37412;52.836;6.362;2023-07-24T08:04:31;18.80;99.90
51327;DHT22;37412;52.836;6.362;2023-07-24T08:07:17;18.80;99.90
51327;DHT22;37412;52.836;6.362;2023-07-24T08:10:03;18.80;99.90
51327;DHT22;37412;52.836;6.362;2023-07-24T08:12:49;18.80;99.90
51327;DHT22;37412;52.836;6.362;2023-07-24T08:15:35;18.80;99.90
51327;DHT22;37412;52.836;6.362;2023-07-24T08:18:21;18.80;99.90
51327;DHT22;37412;52.836;6.362;2023-07-24T08:21:07;18.90;99.90
51327;DHT22;37412;52.836;6.362;2023-07-24T08:23:53;18.90;99.90
51327;DHT22;37412;52.836;6.362;2023-07-24T08:26:39;19.00;99.90
51327;DHT22;37412;52.836;6.362;2023-07-24T08:29:25;19.10;99.90
51327;DHT22;37412;52.836;6.362;2023-07-24T08:32:10;19.00;99.90
51327;DHT22;37412;52.836;6.362;2023-07-24T08:34:56;19.00;99.90
51327;DHT22;37412;52.836;6.362;2023-07-24T08:37:42;19.00;99.90
51327;DHT22;37412;52.836;6.362;2023-07-24T08:40:29;19.00;99.90
51327;DHT22;37412;52.836;6.362;2023-07-24T08:43:15;19.00;99.90
51327;DHT22;37412;52.836;6.362;2023-07-24T08:46:02;19.00;99.90
51327;DHT22;37412;52.836;6.362;2023-07-24T08:48:48;19.00;99.90
51327;DHT22;37412;52.836;6.362;2023-07-24T08:51:34;19.10;99.90
51327;DHT22;37412;52.836;6.362;2023-07-24T08:54:20;19.20;99.90
51327;DHT22;37412;52.836;6.362;2023-07-24T08:57:06;19.20;99.90
51327;DHT22;37412;52.836;6.362;2023-07-24T08:59:53;19.20;99.90
51327;DHT22;37412;52.836;6.362;2023-07-24T09:02:38;19.30;99.90
51327;DHT22;37412;52.836;6.362;2023-07-24T09:05:24;19.30;99.90
51327;DHT22;37412;52.836;6.362;2023-07-24T09:08:10;19.40;99.90
51327;DHT22;37412;52.836;6.362;2023-07-24T09:10:57;19.40;99.90
51327;DHT22;37412;52.836;6.362;2023-07-24T09:13:43;19.50;99.90
51327;DHT22;37412;52.836;6.362;2023-07-24T09:16:28;19.50;99.90
51327;DHT22;37412;52.836;6.362;2023-07-24T09:19:18;19.70;99.90
51327;DHT22;37412;52.836;6.362;2023-07-24T09:22:11;20.10;99.90
51327;DHT22;37412;52.836;6.362;2023-07-24T09:24:57;20.30;99.90
51327;DHT22;37412;52.836;6.362;2023-07-24T09:27:44;20.30;99.90
51327;DHT22;37412;52.836;6.362;2023-07-24T09:30:29;20.30;99.90
51327;DHT22;37412;52.836;6.362;2023-07-24T09:33:15;20.30;99.90
51327;DHT22;37412;52.836;6.362;2023-07-24T09:36:02;20.30;99.90
51327;DHT22;37412;52.836;6.362;2023-07-24T09:38:48;20.40;99.90
51327;DHT22;37412;52.836;6.362;2023-07-24T09:41:34;20.40;99.90
51327;DHT22;37412;52.836;6.362;2023-07-24T09:44:20;20.40;99.90
51327;DHT22;37412;52.836;6.362;2023-07-24T09:47:05;20.60;99.90
51327;DHT22;37412;52.836;6.362;2023-07-24T09:49:52;20.60;99.90
51327;DHT22;37412;52.836;6.362;2023-07-24T09:52:40;20.90;99.90
51327;DHT22;37412;52.836;6.362;2023-07-24T09:55:30;21.10;99.90
51327;DHT22;37412;52.836;6.362;2023-07-24T09:58:20;21.40;99.90
51327;DHT22;37412;52.836;6.362;2023-07-24T10:01:08;21.70;99.90
51327;DHT22;37412;52.836;6.362;2023-07-24T10:03:55;22.10;99.90
51327;DHT22;37412;52.836;6.362;2023-07-24T10:06:42;22.30;99.90
51327;DHT22;37412;52.836;6.362;2023-07-24T10:09:28;22.50;99.90
51327;DHT22;37412;52.836;6.362;2023-07-24T10:12:14;22.70;99.90
51327;DHT22;37412;52.836;6.362;2023-07-24T10:15:02;22.60;99.90
51327;DHT22;37412;52.836;6.362;2023-07-24T10:17:48;22.50;99.90
51327;DHT22;37412;52.836;6.362;2023-07-24T10:20:37;22.60;99.90
51327;DHT22;37412;52.836;6.362;2023-07-24T10:23:24;22.70;99.90
51327;DHT22;37412;52.836;6.362;2023-07-24T10:26:10;22.90;99.90
51327;DHT22;37412;52.836;6.362;2023-07-24T10:28:56;23.00;99.90
51327;DHT22;37412;52.836;6.362;2023-07-24T10:31:51;23.00;99.90
51327;DHT22;37412;52.836;6.362;2023-07-24T10:34:38;23.00;99.90
51327;DHT22;37412;52.836;6.362;2023-07-24T10:37:31;22.90;99.90
51327;DHT22;37412;52.836;6.362;2023-07-24T10:40:20;22.70;99.90
51327;DHT22;37412;52.836;6.362;2023-07-24T10:43:10;22.70;99.90
51327;DHT22;37412;52.836;6.362;2023-07-24T10:45:56;22.50;99.90
51327;DHT22;37412;52.836;6.362;2023-07-24T10:48:49;22.00;99.90
51327;DHT22;37412;52.836;6.362;2023-07-24T10:51:35;21.70;99.90
51327;DHT22;37412;52.836;6.362;2023-07-24T10:54:23;21.20;99.90
51327;DHT22;37412;52.836;6.362;2023-07-24T10:57:09;21.00;99.90
51327;DHT22;37412;52.836;6.362;2023-07-24T10:59:55;20.70;99.90
51327;DHT22;37412;52.836;6.362;2023-07-24T11:02:41;20.60;99.90
51327;DHT22;37412;52.836;6.362;2023-07-24T11:05:27;20.50;99.90
51327;DHT22;37412;52.836;6.362;2023-07-24T11:08:17;20.40;99.90
51327;DHT22;37412;52.836;6.362;2023-07-24T11:11:03;20.30;99.90
51327;DHT22;37412;52.836;6.362;2023-07-24T11:13:50;20.30;99.90
51327;DHT22;37412;52.836;6.362;2023-07-24T11:16:35;20.20;99.90
51327;DHT22;37412;52.836;6.362;2023-07-24T11:19:22;20.30;99.90
51327;DHT22;37412;52.836;6.362;2023-07-24T11:22:08;20.40;99.90
51327;DHT22;37412;52.836;6.362;2023-07-24T11:24:54;20.30;99.90
51327;DHT22;37412;52.836;6.362;2023-07-24T11:27:42;20.40;99.90
51327;DHT22;37412;52.836;6.362;2023-07-24T11:30:29;20.60;99.90
51327;DHT22;37412;52.836;6.362;2023-07-24T11:33:15;20.80;99.90
51327;DHT22;37412;52.836;6.362;2023-07-24T11:36:01;21.00;99.90
51327;DHT22;37412;52.836;6.362;2023-07-24T11:38:47;21.40;99.90
51327;DHT22;37412;52.836;6.362;2023-07-24T11:41:33;21.70;99.90
51327;DHT22;37412;52.836;6.362;2023-07-24T11:44:26;21.80;99.90
51327;DHT22;37412;52.836;6.362;2023-07-24T11:47:12;22.00;99.90
51327;DHT22;37412;52.836;6.362;2023-07-24T11:49:59;22.20;99.90
51327;DHT22;37412;52.836;6.362;2023-07-24T11:52:50;22.20;99.90
51327;DHT22;37412;52.836;6.362;2023-07-24T11:55:36;22.20;99.90
51327;DHT22;37412;52.836;6.362;2023-07-24T11:58:21;22.00;99.90
51327;DHT22;37412;52.836;6.362;2023-07-24T12:01:07;21.90;99.90
51327;DHT22;37412;52.836;6.362;2023-07-24T12:03:53;21.70;99.90
51327;DHT22;37412;52.836;6.362;2023-07-24T12:06:39;21.60;99.90
51327;DHT22;37412;52.836;6.362;2023-07-24T12:09:29;21.70;99.90
51327;DHT22;37412;52.836;6.362;2023-07-24T12:12:15;22.00;99.90
51327;DHT22;37412;52.836;6.362;2023-07-24T12:15:02;22.40;99.90
51327;DHT22;37412;52.836;6.362;2023-07-24T12:17:48;22.60;99.90
51327;DHT22;37412;52.836;6.362;2023-07-24T12:20:34;22.50;99.90
51327;DHT22;37412;52.836;6.362;2023-07-24T12:23:20;22.30;99.90
51327;DHT22;37412;52.836;6.362;2023-07-24T12:26:06;22.00;99.90
51327;DHT22;37412;52.836;6.362;2023-07-24T12:28:54;22.20;99.90
51327;DHT22;37412;52.836;6.362;2023-07-24T12:31:40;22.50;99.90
51327;DHT22;37412;52.836;6.362;2023-07-24T12:34:27;22.90;99.90
51327;DHT22;37412;52.836;6.362;2023-07-24T12:37:13;23.30;99.90
51327;DHT22;37412;52.836;6.362;2023-07-24T12:39:59;23.60;99.90
51327;DHT22;37412;52.836;6.362;2023-07-24T12:42:45;23.90;99.90
51327;DHT22;37412;52.836;6.362;2023-07-24T12:45:31;24.10;99.90
51327;DHT22;37412;52.836;6.362;2023-07-24T12:48:16;23.90;99.90
51327;DHT22;37412;52.836;6.362;2023-07-24T12:51:03;23.50;99.90
51327;DHT22;37412;52.836;6.362;2023-07-24T12:53:49;22.90;99.90
51327;DHT22;37412;52.836;6.362;2023-07-24T12:56:34;22.50;99.90
51327;DHT22;37412;52.836;6.362;2023-07-24T12:59:20;22.00;99.90
51327;DHT22;37412;52.836;6.362;2023-07-24T13:02:06;21.90;99.90
51327;DHT22;37412;52.836;6.362;2023-07-24T13:04:52;21.80;99.90
51327;DHT22;37412;52.836;6.362;2023-07-24T13:07:38;22.00;99.90
51327;DHT22;37412;52.836;6.362;2023-07-24T13:10:23;21.80;99.90
51327;DHT22;37412;52.836;6.362;2023-07-24T13:13:09;21.60;99.90
51327;DHT22;37412;52.836;6.362;2023-07-24T13:15:55;21.40;99.90
51327;DHT22;37412;52.836;6.362;2023-07-24T13:18:41;21.10;99.90
51327;DHT22;37412;52.836;6.362;2023-07-24T13:21:27;20.90;99.90
51327;DHT22;37412;52.836;6.362;2023-07-24T13:24:13;20.70;99.90
51327;DHT22;37412;52.836;6.362;2023-07-24T13:26:59;20.60;99.90
51327;DHT22;37412;52.836;6.362;2023-07-24T13:29:45;20.50;99.90
51327;DHT22;37412;52.836;6.362;2023-07-24T13:32:31;20.50;99.90
51327;DHT22;37412;52.836;6.362;2023-07-24T13:35:17;20.50;99.90
51327;DHT22;37412;52.836;6.362;2023-07-24T13:38:03;20.40;99.90
51327;DHT22;37412;52.836;6.362;2023-07-24T13:40:48;20.30;99.90
51327;DHT22;37412;52.836;6.362;2023-07-24T13:43:34;20.20;99.90
51327;DHT22;37412;52.836;6.362;2023-07-24T13:46:20;20.20;99.90
51327;DHT22;37412;52.836;6.362;2023-07-24T13:49:06;20.20;99.90
51327;DHT22;37412;52.836;6.362;2023-07-24T13:51:52;20.20;99.90
51327;DHT22;37412;52.836;6.362;2023-07-24T13:54:38;20.10;99.90
51327;DHT22;37412;52.836;6.362;2023-07-24T13:57:24;20.10;99.90
51327;DHT22;37412;52.836;6.362;2023-07-24T14:00:10;20.10;99.90
51327;DHT22;37412;52.836;6.362;2023-07-24T14:02:55;20.10;99.90
51327;DHT22;37412;52.836;6.362;2023-07-24T14:05:41;20.00;99.90
51327;DHT22;37412;52.836;6.362;2023-07-24T14:08:27;20.00;99.90
51327;DHT22;37412;52.836;6.362;2023-07-24T14:11:13;19.90;99.90
51327;DHT22;37412;52.836;6.362;2023-07-24T14:13:59;19.80;99.90
51327;DHT22;37412;52.836;6.362;2023-07-24T14:16:45;19.90;99.90
51327;DHT22;37412;52.836;6.362;2023-07-24T14:19:30;19.90;99.90
51327;DHT22;37412;52.836;6.362;2023-07-24T14:22:16;20.00;99.90
51327;DHT22;37412;52.836;6.362;2023-07-24T14:25:02;19.90;99.90
51327;DHT22;37412;52.836;6.362;2023-07-24T14:27:48;19.80;99.90
51327;DHT22;37412;52.836;6.362;2023-07-24T14:30:37;19.80;99.90
51327;DHT22;37412;52.836;6.362;2023-07-24T14:33:23;19.70;99.90
51327;DHT22;37412;52.836;6.362;2023-07-24T14:36:09;20.00;99.90
51327;DHT22;37412;52.836;6.362;2023-07-24T14:38:54;20.20;99.90
51327;DHT22;37412;52.836;6.362;2023-07-24T14:41:40;20.40;99.90
51327;DHT22;37412;52.836;6.362;2023-07-24T14:44:26;20.80;99.90
51327;DHT22;37412;52.836;6.362;2023-07-24T14:47:15;20.90;99.90
51327;DHT22;37412;52.836;6.362;2023-07-24T14:50:01;21.10;99.90
51327;DHT22;37412;52.836;6.362;2023-07-24T14:52:47;21.20;99.90
51327;DHT22;37412;52.836;6.362;2023-07-24T14:55:33;21.10;99.90
51327;DHT22;37412;52.836;6.362;2023-07-24T14:58:19;21.10;99.90
51327;DHT22;37412;52.836;6.362;2023-07-24T15:01:05;21.30;99.90
51327;DHT22;37412;52.836;6.362;2023-07-24T15:03:50;21.40;99.90
51327;DHT22;37412;52.836;6.362;2023-07-24T15:06:36;21.40;99.90
51327;DHT22;37412;52.836;6.362;2023-07-24T15:09:22;21.30;99.90
51327;DHT22;37412;52.836;6.362;2023-07-24T15:12:08;21.10;99.90
51327;DHT22;37412;52.836;6.362;2023-07-24T15:14:54;21.00;99.90
51327;DHT22;37412;52.836;6.362;2023-07-24T15:17:40;20.80;99.90
51327;DHT22;37412;52.836;6.362;2023-07-24T15:20:26;20.60;99.90
51327;DHT22;37412;52.836;6.362;2023-07-24T15:23:11;20.50;99.90
51327;DHT22;37412;52.836;6.362;2023-07-24T15:25:59;20.40;99.90
51327;DHT22;37412;52.836;6.362;2023-07-24T15:28:44;20.20;99.90
51327;DHT22;37412;52.836;6.362;2023-07-24T15:31:30;20.00;99.90
51327;DHT22;37412;52.836;6.362;2023-07-24T15:34:21;19.90;99.90
51327;DHT22;37412;52.836;6.362;2023-07-24T15:37:06;19.90;99.90
51327;DHT22;37412;52.836;6.362;2023-07-24T15:39:52;19.70;99.90
51327;DHT22;37412;52.836;6.362;2023-07-24T15:45:13;19.50;99.90
51327;DHT22;37412;52.836;6.362;2023-07-24T15:47:59;19.50;99.90
51327;DHT22;37412;52.836;6.362;2023-07-24T15:50:45;19.40;99.90
51327;DHT22;37412;52.836;6.362;2023-07-24T15:53:32;19.40;99.90
51327;DHT22;37412;52.836;6.362;2023-07-24T15:56:18;19.40;99.90
51327;DHT22;37412;52.836;6.362;2023-07-24T15:59:04;19.40;99.90
51327;DHT22;37412;52.836;6.362;2023-07-24T16:01:50;19.30;99.90
51327;DHT22;37412;52.836;6.362;2023-07-24T16:04:36;19.30;99.90
51327;DHT22;37412;52.836;6.362;2023-07-24T16:07:22;19.30;99.90
51327;DHT22;37412;52.836;6.362;2023-07-24T16:10:07;19.20;99.90
51327;DHT22;37412;52.836;6.362;2023-07-24T16:12:53;19.10;99.90
51327;DHT22;37412;52.836;6.362;2023-07-24T16:15:39;19.00;99.90
51327;DHT22;37412;52.836;6.362;2023-07-24T16:18:25;19.00;99.90
51327;DHT22;37412;52.836;6.362;2023-07-24T16:21:11;18.90;99.90
51327;DHT22;37412;52.836;6.362;2023-07-24T16:23:57;18.80;99.90
51327;DHT22;37412;52.836;6.362;2023-07-24T16:26:43;18.70;99.90
51327;DHT22;37412;52.836;6.362;2023-07-24T16:29:29;18.60;99.90
51327;DHT22;37412;52.836;6.362;2023-07-24T16:32:17;18.70;99.90
51327;DHT22;37412;52.836;6.362;2023-07-24T16:35:03;18.60;99.90
51327;DHT22;37412;52.836;6.362;2023-07-24T16:37:49;18.60;99.90
51327;DHT22;37412;52.836;6.362;2023-07-24T16:40:35;18.60;99.90
51327;DHT22;37412;52.836;6.362;2023-07-24T16:43:21;18.50;99.90
51327;DHT22;37412;52.836;6.362;2023-07-24T16:46:08;18.50;99.90
51327;DHT22;37412;52.836;6.362;2023-07-24T16:48:54;18.40;99.90
51327;DHT22;37412;52.836;6.362;2023-07-24T16:51:39;18.40;99.90
51327;DHT22;37412;52.836;6.362;2023-07-24T16:54:25;18.30;99.90
51327;DHT22;37412;52.836;6.362;2023-07-24T16:57:11;18.60;99.90
51327;DHT22;37412;52.836;6.362;2023-07-24T16:59:57;18.30;99.90
51327;DHT22;37412;52.836;6.362;2023-07-24T17:02:43;18.30;99.90
51327;DHT22;37412;52.836;6.362;2023-07-24T17:05:29;18.30;99.90
51327;DHT22;37412;52.836;6.362;2023-07-24T17:08:14;18.30;99.90
51327;DHT22;37412;52.836;6.362;2023-07-24T17:11:00;18.20;99.90
51327;DHT22;37412;52.836;6.362;2023-07-24T17:13:46;18.10;99.90
51327;DHT22;37412;52.836;6.362;2023-07-24T17:16:32;18.00;99.90
51327;DHT22;37412;52.836;6.362;2023-07-24T17:19:18;17.90;99.90
51327;DHT22;37412;52.836;6.362;2023-07-24T17:22:06;17.90;99.90
51327;DHT22;37412;52.836;6.362;2023-07-24T17:24:52;17.80;99.90
51327;DHT22;37412;52.836;6.362;2023-07-24T17:27:38;17.90;99.90
51327;DHT22;37412;52.836;6.362;2023-07-24T17:30:25;17.90;99.90
51327;DHT22;37412;52.836;6.362;2023-07-24T17:33:11;17.80;99.90
51327;DHT22;37412;52.836;6.362;2023-07-24T17:35:57;17.80;99.90